createdAt,value
2019-04-25T00:04:38.726Z,1003.1
2019-04-25T00:09:38.989Z,1003.2
2019-04-25T00:14:38.383Z,1003.3
2019-04-25T00:19:38.751Z,1003.3
2019-04-25T00:24:39.620Z,1003.4
2019-04-25T00:29:38.547Z,1003.4
2019-04-25T00:34:38.327Z,1003.4
2019-04-25T00:39:38.192Z,1003.4
2019-04-25T00:44:38.318Z,1003.4
2019-04-25T00:49:38.420Z,1003.4
2019-04-25T00:54:38.229Z,1003.4
2019-04-25T00:59:38.499Z,1003.4
2019-04-25T01:04:38.237Z,1003.4
2019-04-25T01:09:38.333Z,1003.5
2019-04-25T01:14:38.339Z,1003.7
2019-04-25T01:19:38.395Z,1003.7
2019-04-25T01:24:38.281Z,1003.8
2019-04-25T01:29:38.307Z,1003.8
2019-04-25T01:34:38.326Z,1003.8
2019-04-25T01:39:38.475Z,1003.8
2019-04-25T01:44:38.361Z,1003.8
2019-04-25T01:49:38.123Z,1003.8
2019-04-25T01:54:38.315Z,1003.7
2019-04-25T01:59:38.042Z,1003.6
2019-04-25T02:04:38.328Z,1003.6
2019-04-25T02:09:38.130Z,1003.5
2019-04-25T02:14:38.127Z,1003.4
2019-04-25T02:19:38.518Z,1003.3
2019-04-25T02:24:38.386Z,1003.3
2019-04-25T02:29:38.072Z,1003.3
2019-04-25T02:34:38.085Z,1003.3
2019-04-25T02:39:38.185Z,1003.4
2019-04-25T02:44:38.229Z,1003.3
2019-04-25T02:49:39.350Z,1003.3
2019-04-25T02:54:38.074Z,1003.3
2019-04-25T02:59:38.054Z,1003.2
2019-04-25T03:04:38.287Z,1003.2
2019-04-25T03:09:38.376Z,1003.1
2019-04-25T03:14:38.075Z,1003.2
2019-04-25T03:19:38.261Z,1003.2
2019-04-25T03:24:37.990Z,1003.1
2019-04-25T03:29:38.105Z,1003
2019-04-25T03:34:37.928Z,1002.9
2019-04-25T03:39:38.260Z,1002.9
2019-04-25T03:44:38.259Z,1003.1
2019-04-25T03:49:38.308Z,1003.2
2019-04-25T03:54:38.173Z,1003.1
2019-04-25T03:59:37.939Z,1003.2
2019-04-25T04:04:38.018Z,1003.3
2019-04-25T04:09:37.988Z,1003.3
2019-04-25T04:14:38.177Z,1003.2
2019-04-25T04:19:38.221Z,1003.2
2019-04-25T04:24:38.409Z,1003.2
2019-04-25T04:29:38.039Z,1003.2
2019-04-25T04:34:38.065Z,1003.2
2019-04-25T04:39:38.147Z,1003.2
2019-04-25T04:44:38.233Z,1003.3
2019-04-25T04:49:37.940Z,1003.4
2019-04-25T04:54:38.087Z,1003.3
2019-04-25T04:59:38.141Z,1003.3
2019-04-25T05:04:38.226Z,1003.4
2019-04-25T05:09:37.823Z,1003.3
2019-04-25T05:14:38.081Z,1003.4
2019-04-25T05:19:38.071Z,1003.3
2019-04-25T05:24:38.000Z,1003.3
2019-04-25T05:29:38.193Z,1003.3
2019-04-25T05:34:38.150Z,1003.4
2019-04-25T05:39:38.114Z,1003.4
2019-04-25T05:44:37.894Z,1003.5
2019-04-25T05:49:38.021Z,1003.6
2019-04-25T05:54:37.984Z,1003.6
2019-04-25T05:59:38.227Z,1003.6
2019-04-25T06:04:37.877Z,1003.6
2019-04-25T06:09:37.957Z,1003.8
2019-04-25T06:14:38.175Z,1003.9
2019-04-25T06:19:37.755Z,1003.8
2019-04-25T06:24:37.864Z,1003.6
2019-04-25T06:29:37.970Z,1003.7
2019-04-25T06:34:38.172Z,1003.8
2019-04-25T06:39:38.027Z,1003.7
2019-04-25T06:44:38.168Z,1003.8
2019-04-25T06:49:37.685Z,1003.8
2019-04-25T06:54:38.120Z,1003.9
2019-04-25T06:59:41.122Z,1004
2019-04-25T07:04:38.066Z,1004
2019-04-25T07:09:37.709Z,1004.2
2019-04-25T07:14:37.783Z,1004.3
2019-04-25T07:19:37.605Z,1004.3
2019-04-25T07:24:37.890Z,1004.3
2019-04-25T07:29:37.811Z,1004.4
2019-04-25T07:34:37.861Z,1004.6
2019-04-25T07:39:38.112Z,1004.5
2019-04-25T07:44:48.876Z,1004.6
2019-04-25T07:49:37.972Z,1004.6
2019-04-25T07:54:38.490Z,1004.8
2019-04-25T07:59:37.756Z,1005
2019-04-25T08:04:38.382Z,1005
2019-04-25T08:09:38.046Z,1005
2019-04-25T08:14:37.688Z,1005.1
2019-04-25T08:19:37.873Z,1005.2
2019-04-25T08:24:37.789Z,1005.2
2019-04-25T08:29:39.598Z,1005.1
2019-04-25T08:34:38.540Z,1005
2019-04-25T08:39:38.429Z,1004.9
2019-04-25T08:44:37.637Z,1004.9
2019-04-25T08:49:38.178Z,1004.9
2019-04-25T08:54:41.133Z,1004.8
2019-04-25T08:59:42.413Z,1004.9
2019-04-25T09:04:38.077Z,1004.8
2019-04-25T09:09:38.185Z,1005
2019-04-25T09:14:37.849Z,1004.9
2019-04-25T09:19:38.363Z,1004.9
2019-04-25T09:24:38.761Z,1004.9
2019-04-25T09:29:37.772Z,1004.9
2019-04-25T09:34:38.105Z,1004.9
2019-04-25T09:39:37.587Z,1004.9
2019-04-25T09:44:38.425Z,1004.8
2019-04-25T09:49:37.958Z,1004.6
2019-04-25T09:54:38.071Z,1004.6
2019-04-25T09:59:37.731Z,1004.6
2019-04-25T10:04:37.888Z,1004.6
2019-04-25T10:09:37.492Z,1004.7
2019-04-25T10:14:38.654Z,1004.9
2019-04-25T10:19:37.748Z,1004.9
2019-04-25T10:24:38.500Z,1004.5
2019-04-25T10:29:44.875Z,1004.4
2019-04-25T10:34:37.500Z,1004.3
2019-04-25T10:39:37.469Z,1004.3
2019-04-25T10:44:37.345Z,1004.4
2019-04-25T10:49:37.473Z,1004.6
2019-04-25T10:54:37.639Z,1004.7
2019-04-25T10:59:37.385Z,1004.6
2019-04-25T11:04:37.415Z,1004.4
2019-04-25T11:09:37.485Z,1004.5
2019-04-25T11:14:37.474Z,1004.4
2019-04-25T11:19:37.495Z,1004.6
2019-04-25T11:24:37.417Z,1004.6
2019-04-25T11:29:37.357Z,1004.5
2019-04-25T11:34:37.346Z,1004.5
2019-04-25T11:39:37.382Z,1004.5
2019-04-25T11:44:37.729Z,1004.5
2019-04-25T11:49:37.349Z,1004.6
2019-04-25T11:54:37.564Z,1004.5
2019-04-25T11:59:37.383Z,1004.5
2019-04-25T12:04:37.266Z,1004.6
2019-04-25T12:09:37.299Z,1004.3
2019-04-25T12:14:37.657Z,1004.2
2019-04-25T12:19:38.200Z,1004.3
2019-04-25T12:24:37.270Z,1004.3
2019-04-25T12:29:38.803Z,1004.2
2019-04-25T12:34:37.561Z,1004.3
2019-04-25T12:39:37.370Z,1004.2
2019-04-25T12:44:37.484Z,1004.2
2019-04-25T12:49:37.559Z,1004.2
2019-04-25T12:54:37.323Z,1004.1
2019-04-25T12:59:37.370Z,1004.2
2019-04-25T13:04:37.242Z,1004.2
2019-04-25T13:09:37.317Z,1004.1
2019-04-25T13:14:37.180Z,1004.1
2019-04-25T13:19:37.532Z,1004.2
2019-04-25T13:24:37.405Z,1004.2
2019-04-25T13:29:37.298Z,1004.3
2019-04-25T13:34:37.229Z,1004.5
2019-04-25T13:39:37.417Z,1004.7
2019-04-25T13:44:37.258Z,1005
2019-04-25T13:49:37.390Z,1005.3
2019-04-25T13:54:37.078Z,1005.4
2019-04-25T13:59:37.366Z,1005.4
2019-04-25T14:04:37.229Z,1005.5
2019-04-25T14:09:37.263Z,1005.6
2019-04-25T14:14:37.258Z,1005.7
2019-04-25T14:19:37.376Z,1005.8
2019-04-25T14:24:37.031Z,1005.8
2019-04-25T14:29:37.346Z,1005.8
2019-04-25T14:34:37.138Z,1005.8
2019-04-25T14:39:37.199Z,1005.7
2019-04-25T14:44:37.332Z,1005.7
2019-04-25T14:49:37.047Z,1005.7
2019-04-25T14:54:37.434Z,1005.6
2019-04-25T14:59:37.239Z,1005.5
2019-04-25T15:04:37.266Z,1005.5
2019-04-25T15:09:37.193Z,1005.8
2019-04-25T15:14:37.142Z,1005.7
2019-04-25T15:19:37.287Z,1005.7
2019-04-25T15:24:37.170Z,1005.8
2019-04-25T15:29:38.281Z,1005.8
2019-04-25T15:34:38.087Z,1006
2019-04-25T15:39:37.320Z,1006
2019-04-25T15:44:37.319Z,1005.9
2019-04-25T15:49:37.017Z,1005.9
2019-04-25T15:54:36.913Z,1005.9
2019-04-25T15:59:37.153Z,1005.9
2019-04-25T16:04:37.061Z,1005.9
2019-04-25T16:09:37.328Z,1005.7
2019-04-25T16:14:37.157Z,1005.8
2019-04-25T16:19:36.934Z,1005.9
2019-04-25T16:24:37.187Z,1005.9
2019-04-25T16:29:37.166Z,1006
2019-04-25T16:34:37.743Z,1005.8
2019-04-25T16:39:37.146Z,1005.9
2019-04-25T16:44:37.088Z,1006
2019-04-25T16:49:37.146Z,1006.1
2019-04-25T16:54:36.851Z,1006.2
2019-04-25T16:59:37.702Z,1006.1
2019-04-25T17:04:37.548Z,1005.9
2019-04-25T17:09:37.094Z,1006.1
2019-04-25T17:14:37.485Z,1006
2019-04-25T17:19:37.107Z,1006
2019-04-25T17:24:36.818Z,1006
2019-04-25T17:29:37.671Z,1006.1
2019-04-25T17:34:37.020Z,1006.4
2019-04-25T17:39:37.536Z,1006.6
2019-04-25T17:44:36.958Z,1006.7
2019-04-25T17:49:36.890Z,1006.8
2019-04-25T17:54:36.963Z,1007
2019-04-25T17:59:36.917Z,1007.1
2019-04-25T18:04:36.821Z,1007.2
2019-04-25T18:09:36.798Z,1007.2
2019-04-25T18:14:37.043Z,1007.2
2019-04-25T18:19:36.911Z,1007.3
2019-04-25T18:24:36.997Z,1007.3
2019-04-25T18:29:37.393Z,1007.4
2019-04-25T18:34:37.430Z,1007.4
2019-04-25T18:39:37.728Z,1007.5
2019-04-25T18:44:36.802Z,1007.6
2019-04-25T18:49:37.632Z,1007.8
2019-04-25T18:54:37.449Z,1007.8
2019-04-25T18:59:37.156Z,1007.9
2019-04-25T19:04:38.180Z,1007.9
2019-04-25T19:09:36.647Z,1008
2019-04-25T19:14:36.641Z,1008
2019-04-25T19:19:36.654Z,1008
2019-04-25T19:24:36.602Z,1007.9
2019-04-25T19:29:36.759Z,1008
2019-04-25T19:34:36.835Z,1007.8
2019-04-25T19:39:36.956Z,1008.1
2019-04-25T19:44:36.999Z,1008.1
2019-04-25T19:49:36.877Z,1008.1
2019-04-25T19:54:36.921Z,1008
2019-04-25T19:59:37.183Z,1007.9
2019-04-25T20:04:36.915Z,1007.9
2019-04-25T20:09:36.755Z,1007.8
2019-04-25T20:14:36.669Z,1007.8
2019-04-25T20:19:36.661Z,1007.8
2019-04-25T20:24:36.832Z,1007.8
2019-04-25T20:29:36.610Z,1007.7
2019-04-25T20:34:36.816Z,1007.8
2019-04-25T20:39:36.645Z,1007.9
2019-04-25T20:44:36.755Z,1008
2019-04-25T20:49:36.849Z,1007.9
2019-04-25T20:54:36.475Z,1008.1
2019-04-25T20:59:36.617Z,1008
2019-04-25T21:04:36.776Z,1008
2019-04-25T21:09:36.738Z,1008.1
2019-04-25T21:14:36.770Z,1008.2
2019-04-25T21:19:36.591Z,1008.1
2019-04-25T21:24:36.583Z,1008.2
2019-04-25T21:29:36.820Z,1008.4
2019-04-25T21:34:36.539Z,1008.4
2019-04-25T21:39:36.872Z,1008.4
2019-04-25T21:44:36.755Z,1008.5
2019-04-25T21:49:36.533Z,1008.6
2019-04-25T21:54:36.688Z,1008.7
2019-04-25T21:59:36.417Z,1008.9
2019-04-25T22:04:38.832Z,1008.9
2019-04-25T22:09:36.549Z,1008.8
2019-04-25T22:14:36.462Z,1008.7
2019-04-25T22:19:36.585Z,1008.7
2019-04-25T22:24:36.591Z,1008.7
2019-04-25T22:29:36.713Z,1008.7
2019-04-25T22:34:36.550Z,1008.7
2019-04-25T22:39:36.439Z,1008.6
2019-04-25T22:44:36.740Z,1008.5
2019-04-25T22:49:36.308Z,1008.5
2019-04-25T22:54:36.426Z,1008.6
2019-04-25T22:59:36.597Z,1008.6
2019-04-25T23:04:36.446Z,1008.7
2019-04-25T23:09:36.591Z,1008.7
2019-04-25T23:14:36.521Z,1008.8
2019-04-25T23:19:36.565Z,1008.9
2019-04-25T23:24:36.532Z,1009.2
2019-04-25T23:29:36.325Z,1009.3
2019-04-25T23:34:36.346Z,1009.3
2019-04-25T23:39:36.419Z,1009.1
2019-04-25T23:44:36.482Z,1008.9
2019-04-25T23:49:36.491Z,1009
2019-04-25T23:54:36.647Z,1009
2019-04-25T23:59:36.260Z,1008.9
